KRWF

Redwood Falls Municipal Airport

Redwood Falls, Minnesota, USA
METAR KRWF 191653Z AUTO 14005KT 10SM CLR 24/20 A2991 RMK AO2 SLP123 T02440200
Observed Flight Rules
Aug-19 @ 16:53 UTC (20 minutes ago) Visual Flight Rules
Wind Visibility Clouds
140° at 5 knots 10 miles
  • Clear skies
Temperatures Readings
Current 24°C / 75°F
Dewpoint 20°C / 68°F
Humidity 78%
Altimeter 29.91" Hg
Pressure 1012.3 hPa
Elevation 311
METAR KRWF 191653Z AUTO 14005KT 10SM CLR 24/20 A2991 RMK AO2 SLP123 T02440200
Observed Flight Rules
Aug-19 @ 16:53 UTC
(20 minutes ago)
VFR
Wind Visibility
140° at 5 knots 10 miles
Clouds
  • Clear skies
Temperature Dewpoint
24°C / 75°F 20°C / 68°F
Humidity Altimeter Pressure
78% 29.91" Hg 1012.3 hPa